sensor_id;sensor_type;location;lat;lon;timestamp;temperature;humidity
47162;DHT22;32921;53.256;8.198;2023-08-20T00:01:23;14.70;99.90
47162;DHT22;32921;53.256;8.198;2023-08-20T00:03:51;14.60;99.90
47162;DHT22;32921;53.256;8.198;2023-08-20T00:06:18;14.60;99.90
47162;DHT22;32921;53.256;8.198;2023-08-20T00:08:44;14.90;99.90
47162;DHT22;32921;53.256;8.198;2023-08-20T00:11:11;15.00;99.90
47162;DHT22;32921;53.256;8.198;2023-08-20T00:13:37;14.80;99.90
47162;DHT22;32921;53.256;8.198;2023-08-20T00:16:03;14.90;99.90
47162;DHT22;32921;53.256;8.198;2023-08-20T00:18:29;14.90;99.90
47162;DHT22;32921;53.256;8.198;2023-08-20T00:20:55;14.80;99.90
47162;DHT22;32921;53.256;8.198;2023-08-20T00:23:21;14.70;99.90
47162;DHT22;32921;53.256;8.198;2023-08-20T00:25:47;14.50;99.90
47162;DHT22;32921;53.256;8.198;2023-08-20T00:28:13;14.40;99.90
47162;DHT22;32921;53.256;8.198;2023-08-20T00:30:39;14.60;99.90
47162;DHT22;32921;53.256;8.198;2023-08-20T00:33:05;14.40;99.90
47162;DHT22;32921;53.256;8.198;2023-08-20T00:35:30;14.30;99.90
47162;DHT22;32921;53.256;8.198;2023-08-20T00:37:56;14.40;99.90
47162;DHT22;32921;53.256;8.198;2023-08-20T00:40:21;14.30;99.90
47162;DHT22;32921;53.256;8.198;2023-08-20T00:42:47;14.10;99.90
47162;DHT22;32921;53.256;8.198;2023-08-20T00:45:13;14.10;99.90
47162;DHT22;32921;53.256;8.198;2023-08-20T00:47:38;14.30;99.90
47162;DHT22;32921;53.256;8.198;2023-08-20T00:50:05;14.40;99.90
47162;DHT22;32921;53.256;8.198;2023-08-20T00:52:34;14.20;99.90
47162;DHT22;32921;53.256;8.198;2023-08-20T00:55:06;14.00;99.90
47162;DHT22;32921;53.256;8.198;2023-08-20T00:57:33;13.90;99.90
47162;DHT22;32921;53.256;8.198;2023-08-20T00:59:58;14.10;99.90
47162;DHT22;32921;53.256;8.198;2023-08-20T01:02:24;14.40;99.90
47162;DHT22;32921;53.256;8.198;2023-08-20T01:04:50;14.20;99.90
47162;DHT22;32921;53.256;8.198;2023-08-20T01:12:41;14.00;99.90
47162;DHT22;32921;53.256;8.198;2023-08-20T01:15:07;14.00;99.90
47162;DHT22;32921;53.256;8.198;2023-08-20T01:17:39;13.90;99.90
47162;DHT22;32921;53.256;8.198;2023-08-20T01:20:06;13.80;99.90
47162;DHT22;32921;53.256;8.198;2023-08-20T01:28:29;13.70;99.90
47162;DHT22;32921;53.256;8.198;2023-08-20T01:30:59;13.70;99.90
47162;DHT22;32921;53.256;8.198;2023-08-20T01:33:26;13.70;99.90
47162;DHT22;32921;53.256;8.198;2023-08-20T01:35:53;13.70;99.90
47162;DHT22;32921;53.256;8.198;2023-08-20T01:38:18;13.70;99.90
47162;DHT22;32921;53.256;8.198;2023-08-20T01:40:44;13.70;99.90
47162;DHT22;32921;53.256;8.198;2023-08-20T01:43:10;13.60;99.90
47162;DHT22;32921;53.256;8.198;2023-08-20T01:45:36;13.50;99.90
47162;DHT22;32921;53.256;8.198;2023-08-20T01:48:02;13.40;99.90
47162;DHT22;32921;53.256;8.198;2023-08-20T01:50:29;13.30;99.90
47162;DHT22;32921;53.256;8.198;2023-08-20T01:52:54;13.20;99.90
47162;DHT22;32921;53.256;8.198;2023-08-20T01:55:20;13.10;99.90
47162;DHT22;32921;53.256;8.198;2023-08-20T01:57:46;13.00;99.90
47162;DHT22;32921;53.256;8.198;2023-08-20T02:00:12;13.00;99.90
47162;DHT22;32921;53.256;8.198;2023-08-20T02:02:37;13.10;99.90
47162;DHT22;32921;53.256;8.198;2023-08-20T02:05:03;13.30;99.90
47162;DHT22;32921;53.256;8.198;2023-08-20T02:07:29;13.30;99.90
47162;DHT22;32921;53.256;8.198;2023-08-20T02:09:54;13.20;99.90
47162;DHT22;32921;53.256;8.198;2023-08-20T02:12:20;13.10;99.90
47162;DHT22;32921;53.256;8.198;2023-08-20T02:14:45;13.00;99.90
47162;DHT22;32921;53.256;8.198;2023-08-20T02:17:11;13.00;99.90
47162;DHT22;32921;53.256;8.198;2023-08-20T02:19:38;13.00;99.90
47162;DHT22;32921;53.256;8.198;2023-08-20T02:22:03;13.00;99.90
47162;DHT22;32921;53.256;8.198;2023-08-20T02:24:29;12.90;99.90
47162;DHT22;32921;53.256;8.198;2023-08-20T02:26:55;13.00;99.90
47162;DHT22;32921;53.256;8.198;2023-08-20T02:29:20;13.30;99.90
47162;DHT22;32921;53.256;8.198;2023-08-20T02:31:46;13.30;99.90
47162;DHT22;32921;53.256;8.198;2023-08-20T02:34:12;13.10;99.90
47162;DHT22;32921;53.256;8.198;2023-08-20T02:36:37;13.10;99.90
47162;DHT22;32921;53.256;8.198;2023-08-20T02:39:03;13.40;99.90
47162;DHT22;32921;53.256;8.198;2023-08-20T02:41:36;13.50;99.90
47162;DHT22;32921;53.256;8.198;2023-08-20T02:44:05;13.30;99.90
47162;DHT22;32921;53.256;8.198;2023-08-20T02:46:30;13.70;99.90
47162;DHT22;32921;53.256;8.198;2023-08-20T02:48:56;13.70;99.90
47162;DHT22;32921;53.256;8.198;2023-08-20T02:51:21;13.50;99.90
47162;DHT22;32921;53.256;8.198;2023-08-20T02:53:47;13.30;99.90
47162;DHT22;32921;53.256;8.198;2023-08-20T02:56:13;13.40;99.90
47162;DHT22;32921;53.256;8.198;2023-08-20T02:58:38;13.30;99.90
47162;DHT22;32921;53.256;8.198;2023-08-20T03:01:04;13.10;99.90
47162;DHT22;32921;53.256;8.198;2023-08-20T03:03:31;13.20;99.90
47162;DHT22;32921;53.256;8.198;2023-08-20T03:05:56;13.20;99.90
47162;DHT22;32921;53.256;8.198;2023-08-20T03:08:22;13.10;99.90
47162;DHT22;32921;53.256;8.198;2023-08-20T03:10:47;13.00;99.90
47162;DHT22;32921;53.256;8.198;2023-08-20T03:13:13;13.20;99.90
47162;DHT22;32921;53.256;8.198;2023-08-20T03:15:39;13.10;99.90
47162;DHT22;32921;53.256;8.198;2023-08-20T03:18:05;13.10;99.90
47162;DHT22;32921;53.256;8.198;2023-08-20T03:20:31;13.00;99.90
47162;DHT22;32921;53.256;8.198;2023-08-20T03:22:56;13.10;99.90
47162;DHT22;32921;53.256;8.198;2023-08-20T03:25:22;13.10;99.90
47162;DHT22;32921;53.256;8.198;2023-08-20T03:27:48;13.30;99.90
47162;DHT22;32921;53.256;8.198;2023-08-20T03:30:13;13.20;99.90
47162;DHT22;32921;53.256;8.198;2023-08-20T03:32:39;13.10;99.90
47162;DHT22;32921;53.256;8.198;2023-08-20T03:35:05;13.00;99.90
47162;DHT22;32921;53.256;8.198;2023-08-20T03:37:30;13.30;99.90
47162;DHT22;32921;53.256;8.198;2023-08-20T03:39:56;13.30;99.90
47162;DHT22;32921;53.256;8.198;2023-08-20T03:42:22;13.50;99.90
47162;DHT22;32921;53.256;8.198;2023-08-20T03:44:47;13.40;99.90
47162;DHT22;32921;53.256;8.198;2023-08-20T03:47:13;13.30;99.90
47162;DHT22;32921;53.256;8.198;2023-08-20T03:49:39;13.40;99.90
47162;DHT22;32921;53.256;8.198;2023-08-20T03:52:05;13.60;99.90
47162;DHT22;32921;53.256;8.198;2023-08-20T03:54:33;13.60;99.90
47162;DHT22;32921;53.256;8.198;2023-08-20T03:56:59;13.70;99.90
47162;DHT22;32921;53.256;8.198;2023-08-20T03:59:24;13.70;99.90
47162;DHT22;32921;53.256;8.198;2023-08-20T04:01:50;13.70;99.90
47162;DHT22;32921;53.256;8.198;2023-08-20T04:04:15;13.60;99.90
47162;DHT22;32921;53.256;8.198;2023-08-20T04:06:41;13.80;99.90
47162;DHT22;32921;53.256;8.198;2023-08-20T04:09:06;13.60;99.90
47162;DHT22;32921;53.256;8.198;2023-08-20T04:11:34;13.50;99.90
47162;DHT22;32921;53.256;8.198;2023-08-20T04:14:00;13.60;99.90
47162;DHT22;32921;53.256;8.198;2023-08-20T04:16:25;13.60;99.90
47162;DHT22;32921;53.256;8.198;2023-08-20T04:18:51;13.90;99.90
47162;DHT22;32921;53.256;8.198;2023-08-20T04:21:16;13.90;99.90
47162;DHT22;32921;53.256;8.198;2023-08-20T04:23:42;13.80;99.90
47162;DHT22;32921;53.256;8.198;2023-08-20T04:26:08;13.70;99.90
47162;DHT22;32921;53.256;8.198;2023-08-20T04:28:33;13.80;99.90
47162;DHT22;32921;53.256;8.198;2023-08-20T04:30:59;13.80;99.90
47162;DHT22;32921;53.256;8.198;2023-08-20T04:33:26;13.80;99.90
47162;DHT22;32921;53.256;8.198;2023-08-20T04:35:51;13.70;99.90
47162;DHT22;32921;53.256;8.198;2023-08-20T04:38:17;13.70;99.90
47162;DHT22;32921;53.256;8.198;2023-08-20T04:40:46;13.70;99.90
47162;DHT22;32921;53.256;8.198;2023-08-20T04:43:11;13.70;99.90
47162;DHT22;32921;53.256;8.198;2023-08-20T04:45:37;13.80;99.90
47162;DHT22;32921;53.256;8.198;2023-08-20T04:48:03;13.80;99.90
47162;DHT22;32921;53.256;8.198;2023-08-20T04:50:28;13.70;99.90
47162;DHT22;32921;53.256;8.198;2023-08-20T04:52:54;13.70;99.90
47162;DHT22;32921;53.256;8.198;2023-08-20T04:55:20;13.70;99.90
47162;DHT22;32921;53.256;8.198;2023-08-20T04:57:45;13.90;99.90
47162;DHT22;32921;53.256;8.198;2023-08-20T05:00:11;14.10;99.90
47162;DHT22;32921;53.256;8.198;2023-08-20T05:02:37;14.10;99.90
47162;DHT22;32921;53.256;8.198;2023-08-20T05:05:03;14.10;99.90
47162;DHT22;32921;53.256;8.198;2023-08-20T05:07:29;14.30;99.90
47162;DHT22;32921;53.256;8.198;2023-08-20T05:09:55;14.50;99.90
47162;DHT22;32921;53.256;8.198;2023-08-20T05:12:20;14.60;99.90
47162;DHT22;32921;53.256;8.198;2023-08-20T05:14:46;14.70;99.90
47162;DHT22;32921;53.256;8.198;2023-08-20T05:17:11;14.60;99.90
47162;DHT22;32921;53.256;8.198;2023-08-20T05:19:37;14.80;99.90
47162;DHT22;32921;53.256;8.198;2023-08-20T05:22:03;14.80;99.90
47162;DHT22;32921;53.256;8.198;2023-08-20T05:24:28;14.80;99.90
47162;DHT22;32921;53.256;8.198;2023-08-20T05:27:23;14.90;99.90
47162;DHT22;32921;53.256;8.198;2023-08-20T05:29:49;15.10;99.90
47162;DHT22;32921;53.256;8.198;2023-08-20T05:32:14;15.30;99.90
47162;DHT22;32921;53.256;8.198;2023-08-20T05:34:41;15.40;99.90
47162;DHT22;32921;53.256;8.198;2023-08-20T05:37:07;15.60;99.90
47162;DHT22;32921;53.256;8.198;2023-08-20T05:39:37;15.70;99.90
47162;DHT22;32921;53.256;8.198;2023-08-20T05:42:04;15.90;99.90
47162;DHT22;32921;53.256;8.198;2023-08-20T05:44:29;16.00;99.90
47162;DHT22;32921;53.256;8.198;2023-08-20T05:46:55;16.10;99.90
47162;DHT22;32921;53.256;8.198;2023-08-20T05:49:20;16.20;99.90
47162;DHT22;32921;53.256;8.198;2023-08-20T05:51:46;16.20;99.90
47162;DHT22;32921;53.256;8.198;2023-08-20T05:54:11;16.20;99.90
47162;DHT22;32921;53.256;8.198;2023-08-20T05:56:37;16.50;99.90
47162;DHT22;32921;53.256;8.198;2023-08-20T05:59:03;16.50;99.90
47162;DHT22;32921;53.256;8.198;2023-08-20T06:01:29;16.50;99.90
47162;DHT22;32921;53.256;8.198;2023-08-20T06:03:54;16.50;99.90
47162;DHT22;32921;53.256;8.198;2023-08-20T06:06:21;16.60;99.90
47162;DHT22;32921;53.256;8.198;2023-08-20T06:08:47;16.80;99.90
47162;DHT22;32921;53.256;8.198;2023-08-20T06:11:13;16.80;99.90
47162;DHT22;32921;53.256;8.198;2023-08-20T06:13:38;16.90;99.90
47162;DHT22;32921;53.256;8.198;2023-08-20T06:16:04;16.90;99.90
47162;DHT22;32921;53.256;8.198;2023-08-20T06:18:30;17.00;99.90
47162;DHT22;32921;53.256;8.198;2023-08-20T06:20:55;17.10;99.90
47162;DHT22;32921;53.256;8.198;2023-08-20T06:23:21;17.20;99.90
47162;DHT22;32921;53.256;8.198;2023-08-20T06:25:46;17.20;99.90
47162;DHT22;32921;53.256;8.198;2023-08-20T06:28:12;17.30;99.90
47162;DHT22;32921;53.256;8.198;2023-08-20T06:30:37;17.40;99.90
47162;DHT22;32921;53.256;8.198;2023-08-20T06:33:03;17.40;99.90
47162;DHT22;32921;53.256;8.198;2023-08-20T06:35:29;17.60;99.90
47162;DHT22;32921;53.256;8.198;2023-08-20T06:37:54;17.70;99.90
47162;DHT22;32921;53.256;8.198;2023-08-20T06:40:20;17.80;99.90
47162;DHT22;32921;53.256;8.198;2023-08-20T06:42:46;17.90;99.90
47162;DHT22;32921;53.256;8.198;2023-08-20T06:45:12;18.10;99.90
47162;DHT22;32921;53.256;8.198;2023-08-20T06:47:37;18.20;99.90
47162;DHT22;32921;53.256;8.198;2023-08-20T06:50:03;18.30;99.90
47162;DHT22;32921;53.256;8.198;2023-08-20T06:52:29;18.40;99.90
47162;DHT22;32921;53.256;8.198;2023-08-20T06:54:55;18.60;99.90
47162;DHT22;32921;53.256;8.198;2023-08-20T06:57:20;18.60;99.90
47162;DHT22;32921;53.256;8.198;2023-08-20T06:59:46;18.60;99.90
47162;DHT22;32921;53.256;8.198;2023-08-20T07:02:11;18.60;99.90
47162;DHT22;32921;53.256;8.198;2023-08-20T07:04:37;18.60;99.90
47162;DHT22;32921;53.256;8.198;2023-08-20T07:07:03;18.80;99.90
47162;DHT22;32921;53.256;8.198;2023-08-20T07:09:31;18.90;99.90
47162;DHT22;32921;53.256;8.198;2023-08-20T07:11:57;19.20;99.90
47162;DHT22;32921;53.256;8.198;2023-08-20T07:14:22;19.60;99.90
47162;DHT22;32921;53.256;8.198;2023-08-20T07:16:48;19.90;99.90
47162;DHT22;32921;53.256;8.198;2023-08-20T07:19:14;20.10;99.90
47162;DHT22;32921;53.256;8.198;2023-08-20T07:21:39;20.50;99.90
47162;DHT22;32921;53.256;8.198;2023-08-20T07:24:05;20.50;99.90
47162;DHT22;32921;53.256;8.198;2023-08-20T07:26:31;20.60;99.90
47162;DHT22;32921;53.256;8.198;2023-08-20T07:28:56;20.90;99.90
47162;DHT22;32921;53.256;8.198;2023-08-20T07:31:23;21.30;99.90
47162;DHT22;32921;53.256;8.198;2023-08-20T07:33:50;21.60;99.90
47162;DHT22;32921;53.256;8.198;2023-08-20T07:36:17;22.30;99.90
47162;DHT22;32921;53.256;8.198;2023-08-20T07:38:43;22.60;99.90
47162;DHT22;32921;53.256;8.198;2023-08-20T07:41:09;23.10;99.90
47162;DHT22;32921;53.256;8.198;2023-08-20T07:43:37;23.30;99.90
47162;DHT22;32921;53.256;8.198;2023-08-20T07:46:04;23.40;99.90
47162;DHT22;32921;53.256;8.198;2023-08-20T07:48:29;23.60;99.90
47162;DHT22;32921;53.256;8.198;2023-08-20T07:50:55;24.00;99.90
47162;DHT22;32921;53.256;8.198;2023-08-20T07:53:20;24.20;99.90
47162;DHT22;32921;53.256;8.198;2023-08-20T07:55:46;24.30;99.90
47162;DHT22;32921;53.256;8.198;2023-08-20T07:58:12;24.70;99.90
47162;DHT22;32921;53.256;8.198;2023-08-20T08:00:37;24.40;99.90
47162;DHT22;32921;53.256;8.198;2023-08-20T08:03:03;24.50;99.90
47162;DHT22;32921;53.256;8.198;2023-08-20T08:05:29;24.80;99.90
47162;DHT22;32921;53.256;8.198;2023-08-20T08:07:54;25.10;99.90
47162;DHT22;32921;53.256;8.198;2023-08-20T08:10:20;25.20;99.90
47162;DHT22;32921;53.256;8.198;2023-08-20T08:12:45;25.30;99.90
47162;DHT22;32921;53.256;8.198;2023-08-20T08:15:11;25.50;99.90
47162;DHT22;32921;53.256;8.198;2023-08-20T08:17:37;25.60;99.90
47162;DHT22;32921;53.256;8.198;2023-08-20T08:20:03;25.80;99.90
47162;DHT22;32921;53.256;8.198;2023-08-20T08:22:29;26.10;99.90
47162;DHT22;32921;53.256;8.198;2023-08-20T08:24:55;26.60;99.90
47162;DHT22;32921;53.256;8.198;2023-08-20T08:27:20;26.70;99.90
47162;DHT22;32921;53.256;8.198;2023-08-20T08:29:46;26.80;99.90
47162;DHT22;32921;53.256;8.198;2023-08-20T08:32:12;27.00;99.90
47162;DHT22;32921;53.256;8.198;2023-08-20T08:34:37;27.00;99.90
47162;DHT22;32921;53.256;8.198;2023-08-20T08:37:03;27.00;99.90
47162;DHT22;32921;53.256;8.198;2023-08-20T08:39:28;27.30;99.90
47162;DHT22;32921;53.256;8.198;2023-08-20T08:42:01;27.30;99.60
47162;DHT22;32921;53.256;8.198;2023-08-20T08:44:28;27.30;97.60
47162;DHT22;32921;53.256;8.198;2023-08-20T08:46:53;27.10;97.70
47162;DHT22;32921;53.256;8.198;2023-08-20T08:49:19;27.10;98.90
47162;DHT22;32921;53.256;8.198;2023-08-20T08:51:45;27.30;99.80
47162;DHT22;32921;53.256;8.198;2023-08-20T08:54:13;27.60;99.90
47162;DHT22;32921;53.256;8.198;2023-08-20T08:56:39;27.70;97.20
47162;DHT22;32921;53.256;8.198;2023-08-20T08:59:05;27.80;95.80
47162;DHT22;32921;53.256;8.198;2023-08-20T09:01:30;27.70;97.20
47162;DHT22;32921;53.256;8.198;2023-08-20T09:03:57;27.80;95.70
47162;DHT22;32921;53.256;8.198;2023-08-20T09:06:22;27.90;96.20
47162;DHT22;32921;53.256;8.198;2023-08-20T09:08:48;28.10;92.70
47162;DHT22;32921;53.256;8.198;2023-08-20T09:11:13;28.30;93.00
47162;DHT22;32921;53.256;8.198;2023-08-20T09:13:40;28.60;92.20
47162;DHT22;32921;53.256;8.198;2023-08-20T09:16:08;28.30;91.00
47162;DHT22;32921;53.256;8.198;2023-08-20T09:18:41;28.20;92.60
47162;DHT22;32921;53.256;8.198;2023-08-20T09:21:08;28.30;90.30
47162;DHT22;32921;53.256;8.198;2023-08-20T09:23:34;28.20;90.00
47162;DHT22;32921;53.256;8.198;2023-08-20T09:26:02;28.20;90.10
47162;DHT22;32921;53.256;8.198;2023-08-20T09:28:28;28.20;89.10
47162;DHT22;32921;53.256;8.198;2023-08-20T09:30:58;28.60;88.20
47162;DHT22;32921;53.256;8.198;2023-08-20T09:33:27;28.80;80.80
47162;DHT22;32921;53.256;8.198;2023-08-20T09:35:52;28.60;82.70
47162;DHT22;32921;53.256;8.198;2023-08-20T09:38:20;28.70;82.90
47162;DHT22;32921;53.256;8.198;2023-08-20T09:40:53;28.80;86.90
47162;DHT22;32921;53.256;8.198;2023-08-20T09:43:23;28.70;81.40
47162;DHT22;32921;53.256;8.198;2023-08-20T09:45:54;29.00;84.10
47162;DHT22;32921;53.256;8.198;2023-08-20T09:48:20;29.00;76.30
47162;DHT22;32921;53.256;8.198;2023-08-20T09:50:47;28.90;77.00
47162;DHT22;32921;53.256;8.198;2023-08-20T09:53:34;28.80;78.30
47162;DHT22;32921;53.256;8.198;2023-08-20T09:56:09;28.60;87.70
47162;DHT22;32921;53.256;8.198;2023-08-20T09:58:37;29.10;86.10
47162;DHT22;32921;53.256;8.198;2023-08-20T10:01:03;29.30;79.00
47162;DHT22;32921;53.256;8.198;2023-08-20T10:03:29;29.40;80.50
47162;DHT22;32921;53.256;8.198;2023-08-20T10:05:56;29.30;79.40
47162;DHT22;32921;53.256;8.198;2023-08-20T10:08:23;29.40;79.40
47162;DHT22;32921;53.256;8.198;2023-08-20T10:10:49;29.20;79.20
47162;DHT22;32921;53.256;8.198;2023-08-20T10:13:15;29.00;75.70
47162;DHT22;32921;53.256;8.198;2023-08-20T10:15:41;29.00;78.80
47162;DHT22;32921;53.256;8.198;2023-08-20T10:18:08;29.10;78.30
47162;DHT22;32921;53.256;8.198;2023-08-20T10:20:34;29.50;77.20
47162;DHT22;32921;53.256;8.198;2023-08-20T10:23:02;29.70;79.80
47162;DHT22;32921;53.256;8.198;2023-08-20T10:25:29;30.20;78.20
47162;DHT22;32921;53.256;8.198;2023-08-20T10:28:21;30.00;74.80
47162;DHT22;32921;53.256;8.198;2023-08-20T10:31:10;30.00;77.00
47162;DHT22;32921;53.256;8.198;2023-08-20T10:36:17;30.40;77.50
47162;DHT22;32921;53.256;8.198;2023-08-20T10:38:45;30.00;73.50
47162;DHT22;32921;53.256;8.198;2023-08-20T10:41:11;29.80;71.90
47162;DHT22;32921;53.256;8.198;2023-08-20T10:43:39;29.60;74.50
47162;DHT22;32921;53.256;8.198;2023-08-20T10:46:15;29.30;77.60
47162;DHT22;32921;53.256;8.198;2023-08-20T10:48:42;29.30;74.30
47162;DHT22;32921;53.256;8.198;2023-08-20T10:51:27;28.70;76.60
47162;DHT22;32921;53.256;8.198;2023-08-20T10:56:44;29.30;77.20
47162;DHT22;32921;53.256;8.198;2023-08-20T10:59:30;29.80;76.20
47162;DHT22;32921;53.256;8.198;2023-08-20T11:01:57;30.30;74.80
47162;DHT22;32921;53.256;8.198;2023-08-20T11:04:31;30.80;71.20
47162;DHT22;32921;53.256;8.198;2023-08-20T11:06:59;30.90;70.60
47162;DHT22;32921;53.256;8.198;2023-08-20T11:09:27;31.00;67.00
47162;DHT22;32921;53.256;8.198;2023-08-20T11:11:53;30.40;68.60
47162;DHT22;32921;53.256;8.198;2023-08-20T11:14:20;30.40;69.20
47162;DHT22;32921;53.256;8.198;2023-08-20T11:16:46;30.00;69.60
47162;DHT22;32921;53.256;8.198;2023-08-20T11:19:13;29.80;72.60
47162;DHT22;32921;53.256;8.198;2023-08-20T11:21:43;30.00;67.50
47162;DHT22;32921;53.256;8.198;2023-08-20T11:24:09;29.40;72.70
47162;DHT22;32921;53.256;8.198;2023-08-20T11:26:35;29.20;70.10
47162;DHT22;32921;53.256;8.198;2023-08-20T11:29:08;29.20;69.80
47162;DHT22;32921;53.256;8.198;2023-08-20T11:31:35;29.00;70.60
47162;DHT22;32921;53.256;8.198;2023-08-20T11:34:02;29.20;72.10
47162;DHT22;32921;53.256;8.198;2023-08-20T11:36:28;29.90;69.20
47162;DHT22;32921;53.256;8.198;2023-08-20T11:38:54;30.40;67.70
47162;DHT22;32921;53.256;8.198;2023-08-20T11:41:20;30.70;65.40
47162;DHT22;32921;53.256;8.198;2023-08-20T11:43:47;30.90;63.80
47162;DHT22;32921;53.256;8.198;2023-08-20T11:46:14;31.20;63.00
47162;DHT22;32921;53.256;8.198;2023-08-20T11:51:44;32.10;64.30
47162;DHT22;32921;53.256;8.198;2023-08-20T11:54:14;32.80;60.60
47162;DHT22;32921;53.256;8.198;2023-08-20T11:56:50;33.10;55.50
47162;DHT22;32921;53.256;8.198;2023-08-20T11:59:18;32.80;56.90
47162;DHT22;32921;53.256;8.198;2023-08-20T12:01:54;32.80;56.00
47162;DHT22;32921;53.256;8.198;2023-08-20T12:04:23;32.90;55.20
47162;DHT22;32921;53.256;8.198;2023-08-20T12:07:05;33.00;53.40
47162;DHT22;32921;53.256;8.198;2023-08-20T12:09:32;32.80;52.60
47162;DHT22;32921;53.256;8.198;2023-08-20T12:11:58;32.00;53.30
47162;DHT22;32921;53.256;8.198;2023-08-20T12:14:24;32.30;55.60
47162;DHT22;32921;53.256;8.198;2023-08-20T12:16:50;32.70;53.10
47162;DHT22;32921;53.256;8.198;2023-08-20T12:19:16;33.50;50.20
47162;DHT22;32921;53.256;8.198;2023-08-20T12:21:42;33.30;50.20
47162;DHT22;32921;53.256;8.198;2023-08-20T12:24:09;33.20;50.90
47162;DHT22;32921;53.256;8.198;2023-08-20T12:26:36;32.20;51.20
47162;DHT22;32921;53.256;8.198;2023-08-20T12:29:02;31.20;53.10
47162;DHT22;32921;53.256;8.198;2023-08-20T12:31:27;30.80;52.50
47162;DHT22;32921;53.256;8.198;2023-08-20T12:33:53;31.40;51.40
47162;DHT22;32921;53.256;8.198;2023-08-20T12:36:18;32.10;51.70
47162;DHT22;32921;53.256;8.198;2023-08-20T12:38:44;33.00;49.10
47162;DHT22;32921;53.256;8.198;2023-08-20T14:13:48;33.70;48.50
47162;DHT22;32921;53.256;8.198;2023-08-20T14:16:14;31.10;37.50
47162;DHT22;32921;53.256;8.198;2023-08-20T14:18:39;30.30;40.60
47162;DHT22;32921;53.256;8.198;2023-08-20T14:21:05;30.10;42.40
47162;DHT22;32921;53.256;8.198;2023-08-20T14:23:31;32.20;40.60
47162;DHT22;32921;53.256;8.198;2023-08-20T14:25:57;33.30;35.80
47162;DHT22;32921;53.256;8.198;2023-08-20T14:28:22;33.70;36.70
47162;DHT22;32921;53.256;8.198;2023-08-20T14:30:49;34.50;34.90
47162;DHT22;32921;53.256;8.198;2023-08-20T15:17:15;34.90;35.20
47162;DHT22;32921;53.256;8.198;2023-08-20T15:19:40;31.70;36.60
47162;DHT22;32921;53.256;8.198;2023-08-20T15:22:06;30.20;38.80
47162;DHT22;32921;53.256;8.198;2023-08-20T15:24:31;29.50;40.30
47162;DHT22;32921;53.256;8.198;2023-08-20T15:26:57;29.10;41.10
47162;DHT22;32921;53.256;8.198;2023-08-20T15:29:22;28.70;42.80
47162;DHT22;32921;53.256;8.198;2023-08-20T15:31:48;28.40;46.20
47162;DHT22;32921;53.256;8.198;2023-08-20T15:34:17;28.60;45.50
47162;DHT22;32921;53.256;8.198;2023-08-20T15:36:43;30.30;42.50
47162;DHT22;32921;53.256;8.198;2023-08-20T15:48:52;33.00;37.50
47162;DHT22;32921;53.256;8.198;2023-08-20T15:51:18;32.30;46.00
47162;DHT22;32921;53.256;8.198;2023-08-20T15:53:45;31.00;49.10
47162;DHT22;32921;53.256;8.198;2023-08-20T15:56:11;29.50;54.00
47162;DHT22;32921;53.256;8.198;2023-08-20T15:58:36;28.10;60.60
47162;DHT22;32921;53.256;8.198;2023-08-20T16:01:02;27.30;67.80
47162;DHT22;32921;53.256;8.198;2023-08-20T16:03:28;26.70;75.10
47162;DHT22;32921;53.256;8.198;2023-08-20T16:05:54;26.10;82.70
47162;DHT22;32921;53.256;8.198;2023-08-20T16:08:19;25.70;87.20
47162;DHT22;32921;53.256;8.198;2023-08-20T16:10:45;25.50;90.40
47162;DHT22;32921;53.256;8.198;2023-08-20T16:13:11;25.60;92.00
47162;DHT22;32921;53.256;8.198;2023-08-20T16:15:36;27.40;84.20
47162;DHT22;32921;53.256;8.198;2023-08-20T16:18:02;29.10;74.60
47162;DHT22;32921;53.256;8.198;2023-08-20T16:20:28;30.10;68.50
47162;DHT22;32921;53.256;8.198;2023-08-20T16:22:53;29.80;67.80
47162;DHT22;32921;53.256;8.198;2023-08-20T16:25:19;30.00;68.60
47162;DHT22;32921;53.256;8.198;2023-08-20T16:27:45;30.00;67.30
47162;DHT22;32921;53.256;8.198;2023-08-20T16:30:11;30.60;64.20
47162;DHT22;32921;53.256;8.198;2023-08-20T16:32:37;29.70;65.40
47162;DHT22;32921;53.256;8.198;2023-08-20T16:35:03;27.80;75.80
47162;DHT22;32921;53.256;8.198;2023-08-20T16:37:28;27.30;79.30
47162;DHT22;32921;53.256;8.198;2023-08-20T16:39:57;27.00;85.00
47162;DHT22;32921;53.256;8.198;2023-08-20T16:42:22;27.80;79.20
47162;DHT22;32921;53.256;8.198;2023-08-20T16:44:48;27.10;80.40
47162;DHT22;32921;53.256;8.198;2023-08-20T16:47:13;26.00;88.10
47162;DHT22;32921;53.256;8.198;2023-08-20T16:49:40;25.20;93.70
47162;DHT22;32921;53.256;8.198;2023-08-20T16:52:07;24.70;97.00
47162;DHT22;32921;53.256;8.198;2023-08-20T16:54:32;24.40;99.90
47162;DHT22;32921;53.256;8.198;2023-08-20T16:56:58;24.10;99.90
47162;DHT22;32921;53.256;8.198;2023-08-20T16:59:23;24.20;99.90
47162;DHT22;32921;53.256;8.198;2023-08-20T17:01:49;24.00;99.90
47162;DHT22;32921;53.256;8.198;2023-08-20T17:04:14;23.90;99.90
47162;DHT22;32921;53.256;8.198;2023-08-20T17:06:40;23.70;99.90
47162;DHT22;32921;53.256;8.198;2023-08-20T17:09:05;23.60;99.90
47162;DHT22;32921;53.256;8.198;2023-08-20T17:11:31;23.50;99.90
47162;DHT22;32921;53.256;8.198;2023-08-20T17:13:56;23.30;99.90
47162;DHT22;32921;53.256;8.198;2023-08-20T17:16:23;23.10;99.90
47162;DHT22;32921;53.256;8.198;2023-08-20T17:18:48;23.10;99.90
47162;DHT22;32921;53.256;8.198;2023-08-20T17:21:14;23.10;99.90
47162;DHT22;32921;53.256;8.198;2023-08-20T17:23:39;23.00;99.90
47162;DHT22;32921;53.256;8.198;2023-08-20T17:26:05;22.90;99.90
47162;DHT22;32921;53.256;8.198;2023-08-20T17:28:31;22.80;99.90
47162;DHT22;32921;53.256;8.198;2023-08-20T17:30:56;22.70;99.90
47162;DHT22;32921;53.256;8.198;2023-08-20T17:33:22;22.70;99.90
47162;DHT22;32921;53.256;8.198;2023-08-20T17:35:48;22.60;99.90
47162;DHT22;32921;53.256;8.198;2023-08-20T17:38:14;22.50;99.90
47162;DHT22;32921;53.256;8.198;2023-08-20T17:40:40;22.40;99.90
47162;DHT22;32921;53.256;8.198;2023-08-20T17:43:06;22.30;99.90
47162;DHT22;32921;53.256;8.198;2023-08-20T17:45:34;22.20;99.90
47162;DHT22;32921;53.256;8.198;2023-08-20T17:48:01;22.10;99.90
47162;DHT22;32921;53.256;8.198;2023-08-20T17:50:27;22.00;99.90
47162;DHT22;32921;53.256;8.198;2023-08-20T17:52:52;21.90;99.90
47162;DHT22;32921;53.256;8.198;2023-08-20T17:55:18;21.70;99.90
47162;DHT22;32921;53.256;8.198;2023-08-20T17:57:43;21.60;99.90
47162;DHT22;32921;53.256;8.198;2023-08-20T18:00:09;21.60;99.90
47162;DHT22;32921;53.256;8.198;2023-08-20T18:02:35;21.50;99.90
47162;DHT22;32921;53.256;8.198;2023-08-20T18:05:02;21.50;99.90
47162;DHT22;32921;53.256;8.198;2023-08-20T18:07:29;21.30;99.90
47162;DHT22;32921;53.256;8.198;2023-08-20T18:09:55;21.30;99.90
47162;DHT22;32921;53.256;8.198;2023-08-20T18:12:21;21.20;99.90